Time;durP1;ratioP1;P1;durP2;ratioP2;P2;SDS_P1;SDS_P2;PMS_P1;PMS_P2;Temp;Humidity;BMP_temperature;BMP_pressure;BME280_temperature;BME280_humidity;BME280_pressure;Samples;Min_cycle;Max_cycle;Signal;HPM_P1;HPM_P2
2023/03/14 00:00:16;;;;;;;;;;;;;;;9.32;50.78;95901.10;105099;1265;109160;-75
2023/03/14 00:03:04;;;;;;;;;;;;;;;9.32;50.80;95893.52;105131;1251;96580;-75
2023/03/14 00:05:32;;;;;;;;;;;;;;;9.31;50.69;95893.09;105236;1257;97460;-75
2023/03/14 00:08:00;;;;;;;;;;;;;;;9.32;50.61;95898.55;105180;1257;102818;-74
2023/03/14 00:10:28;;;;;;;;;;;;;;;9.32;50.56;95895.77;105209;1260;101879;-75
2023/03/14 00:12:56;;;;;;;;;;;;;;;9.32;50.65;95884.61;105132;1255;100524;-76
2023/03/14 00:15:24;;;;;;;;;;;;;;;9.33;50.60;95871.92;105193;1257;96621;-75
2023/03/14 00:17:52;;;;;;;;;;;;;;;9.34;50.53;95850.95;105105;1271;97375;-75
2023/03/14 00:20:20;;;;;;;;;;;;;;;9.35;50.43;95841.48;105141;1251;102925;-75
2023/03/14 00:22:48;;;;;;;;;;;;;;;9.37;50.34;95849.98;105291;1256;101847;-75
2023/03/14 00:25:16;;;;;;;;;;;;;;;9.40;50.27;95841.80;105133;1257;100908;-75
2023/03/14 00:27:44;;;;;;;;;;;;;;;9.41;50.35;95844.52;105383;1257;96691;-75
2023/03/14 00:30:12;;;;;;;;;;;;;;;9.39;50.43;95837.21;105385;1256;96686;-76
2023/03/14 00:32:40;;;;;;;;;;;;;;;9.38;50.41;95829.04;105002;1260;102723;-75
2023/03/14 00:35:08;;;;;;;;;;;;;;;9.34;50.56;95814.70;105277;1257;110505;-77
2023/03/14 00:37:36;;;;;;;;;;;;;;;9.32;50.43;95811.05;105159;1251;98777;-78
2023/03/14 00:40:07;;;;;;;;;;;;;;;9.30;50.47;95802.28;105185;1250;97760;-75
2023/03/14 00:42:35;;;;;;;;;;;;;;;9.29;50.49;95794.41;105153;1256;96699;-75
2023/03/14 00:45:04;;;;;;;;;;;;;;;9.30;50.42;95795.49;105235;1257;102485;-75
2023/03/14 00:47:32;;;;;;;;;;;;;;;9.31;50.39;95796.44;105259;1264;101835;-76
2023/03/14 00:50:00;;;;;;;;;;;;;;;9.33;50.32;95786.03;105166;1256;100482;-75
2023/03/14 00:52:28;;;;;;;;;;;;;;;9.34;50.36;95781.09;105214;1254;96587;-75
2023/03/14 00:54:56;;;;;;;;;;;;;;;9.36;50.44;95783.13;105226;1258;96552;-76
2023/03/14 00:57:24;;;;;;;;;;;;;;;9.38;50.41;95779.77;105179;1251;102699;-75
2023/03/14 00:59:53;;;;;;;;;;;;;;;9.39;50.39;95771.91;105304;1256;101768;-76
2023/03/14 01:02:21;;;;;;;;;;;;;;;9.39;50.34;95771.54;105158;1257;100616;-75
2023/03/14 01:04:49;;;;;;;;;;;;;;;9.36;50.35;95769.49;105222;1256;97842;-75
2023/03/14 01:07:17;;;;;;;;;;;;;;;9.34;50.48;95758.80;105407;1257;96587;-74
2023/03/14 01:09:45;;;;;;;;;;;;;;;9.33;50.59;95745.25;105410;1257;102745;-74
2023/03/14 01:12:14;;;;;;;;;;;;;;;9.28;50.68;95737.16;105177;1256;101869;-75
2023/03/14 01:14:41;;;;;;;;;;;;;;;9.23;50.72;95737.00;105101;1257;100376;-75
2023/03/14 01:17:09;;;;;;;;;;;;;;;9.16;50.79;95734.41;105175;1256;97562;-75
2023/03/14 01:19:38;;;;;;;;;;;;;;;9.09;50.89;95730.24;105145;1257;97884;-74
2023/03/14 01:22:05;;;;;;;;;;;;;;;9.03;51.06;95730.00;105213;1267;102607;-76
2023/03/14 01:24:33;;;;;;;;;;;;;;;8.96;51.27;95722.50;105176;1257;101867;-75
2023/03/14 01:27:01;;;;;;;;;;;;;;;8.87;51.48;95719.85;105346;1274;100521;-75
2023/03/14 01:29:29;;;;;;;;;;;;;;;8.79;51.73;95718.14;105349;1251;97019;-74
2023/03/14 01:31:57;;;;;;;;;;;;;;;8.68;51.89;95717.35;105517;1251;97150;-74
2023/03/14 01:34:25;;;;;;;;;;;;;;;8.57;52.06;95713.33;105357;1251;102520;-74
2023/03/14 01:36:53;;;;;;;;;;;;;;;8.47;52.19;95706.13;105176;1269;101827;-74
2023/03/14 01:39:21;;;;;;;;;;;;;;;8.38;52.36;95698.42;105445;1254;100398;-74
2023/03/14 01:41:49;;;;;;;;;;;;;;;8.29;52.65;95692.90;105401;1257;97575;-75
2023/03/14 01:44:17;;;;;;;;;;;;;;;8.20;52.84;95687.61;105419;1267;97830;-75
2023/03/14 01:46:46;;;;;;;;;;;;;;;8.14;53.03;95684.85;105279;1257;102735;-74
2023/03/14 01:49:27;;;;;;;;;;;;;;;8.12;53.17;95681.20;105124;1257;101836;-75
2023/03/14 01:51:58;;;;;;;;;;;;;;;8.12;53.24;95675.77;105140;1257;100151;-74
2023/03/14 01:54:33;;;;;;;;;;;;;;;8.15;53.25;95664.33;105157;1256;97973;-74
2023/03/14 01:57:05;;;;;;;;;;;;;;;8.22;53.27;95658.06;105091;1257;97905;-75
2023/03/14 01:59:34;;;;;;;;;;;;;;;8.29;53.32;95648.17;105079;1259;103693;-76
2023/03/14 02:02:03;;;;;;;;;;;;;;;8.36;53.27;95646.23;105194;1251;101802;-74
2023/03/14 02:04:33;;;;;;;;;;;;;;;8.41;53.37;95641.74;105265;1251;100333;-75
2023/03/14 02:07:13;;;;;;;;;;;;;;;8.41;53.50;95640.29;105132;1255;97941;-76
2023/03/14 02:09:42;;;;;;;;;;;;;;;8.38;53.48;95637.34;105139;1257;97921;-74
2023/03/14 02:12:11;;;;;;;;;;;;;;;8.31;53.68;95636.35;105114;1257;104372;-75
2023/03/14 02:14:40;;;;;;;;;;;;;;;8.20;53.72;95626.88;105234;1258;102022;-74
2023/03/14 02:17:08;;;;;;;;;;;;;;;8.12;53.90;95627.19;105284;1251;100709;-75
2023/03/14 02:20:02;;;;;;;;;;;;;;;8.02;54.09;95623.17;105125;1257;99203;-74
2023/03/14 02:22:30;;;;;;;;;;;;;;;7.93;54.43;95615.48;105211;1257;97838;-74
2023/03/14 02:25:05;;;;;;;;;;;;;;;7.86;54.56;95605.11;105063;1259;103687;-75
2023/03/14 02:27:34;;;;;;;;;;;;;;;7.79;54.52;95601.27;104965;1259;101879;-75
2023/03/14 02:30:04;;;;;;;;;;;;;;;7.76;54.71;95596.58;105024;1261;100509;-74
2023/03/14 02:32:34;;;;;;;;;;;;;;;7.75;54.88;95590.70;105094;1257;98005;-74
2023/03/14 02:35:06;;;;;;;;;;;;;;;7.71;54.95;95586.16;105284;1251;97913;-74
2023/03/14 02:37:46;;;;;;;;;;;;;;;7.64;55.00;95585.14;105257;1257;102687;-75
2023/03/14 02:40:15;;;;;;;;;;;;;;;7.56;55.15;95583.02;105371;1261;101702;-74
2023/03/14 02:42:43;;;;;;;;;;;;;;;7.49;55.35;95585.06;105340;1256;100577;-74
2023/03/14 02:45:11;;;;;;;;;;;;;;;7.42;55.56;95583.84;105177;1255;99232;-74
2023/03/14 02:47:43;;;;;;;;;;;;;;;7.33;55.74;95581.87;105515;1257;97865;-73
2023/03/14 02:50:14;;;;;;;;;;;;;;;7.23;55.91;95583.91;105346;1251;104136;-74
2023/03/14 02:52:42;;;;;;;;;;;;;;;7.07;56.12;95578.14;105406;1254;108760;-74
2023/03/14 02:55:10;;;;;;;;;;;;;;;7.00;56.34;95565.56;105137;1255;100749;-75
2023/03/14 02:57:38;;;;;;;;;;;;;;;6.88;56.47;95559.19;105021;1259;97928;-74
2023/03/14 03:00:08;;;;;;;;;;;;;;;6.78;56.65;95556.55;105154;1259;98071;-75
2023/03/14 03:02:36;;;;;;;;;;;;;;;6.69;56.82;95561.36;105467;1251;104026;-75
2023/03/14 03:05:04;;;;;;;;;;;;;;;6.57;57.15;95562.39;105179;1257;100297;-74
2023/03/14 03:07:32;;;;;;;;;;;;;;;6.47;57.35;95556.36;105246;1256;100382;-74
2023/03/14 03:10:00;;;;;;;;;;;;;;;6.39;57.69;95554.61;105022;1260;99602;-76
2023/03/14 03:12:30;;;;;;;;;;;;;;;6.26;57.90;95547.42;105137;1257;99127;-76
2023/03/14 03:14:58;;;;;;;;;;;;;;;6.18;58.05;95548.13;105309;1256;104131;-74
2023/03/14 03:17:26;;;;;;;;;;;;;;;6.10;58.32;95542.54;105247;1256;101876;-75
2023/03/14 03:19:54;;;;;;;;;;;;;;;6.08;58.50;95538.41;104979;1251;100167;-75
2023/03/14 03:22:22;;;;;;;;;;;;;;;6.04;58.64;95536.33;105308;1256;98715;-76
2023/03/14 03:24:50;;;;;;;;;;;;;;;5.94;58.87;95532.30;105336;1252;98030;-73
2023/03/14 03:27:18;;;;;;;;;;;;;;;5.87;59.13;95525.06;105161;1255;104082;-76
2023/03/14 03:29:46;;;;;;;;;;;;;;;5.83;59.24;95525.80;105225;1256;101834;-74
2023/03/14 03:32:14;;;;;;;;;;;;;;;5.76;59.38;95524.78;105243;1257;100470;-74
2023/03/14 03:34:42;;;;;;;;;;;;;;;5.74;59.63;95515.71;105393;1258;97941;-75
2023/03/14 03:37:09;;;;;;;;;;;;;;;5.74;59.74;95511.88;105410;1257;97976;-76
2023/03/14 03:39:37;;;;;;;;;;;;;;;5.73;59.83;95505.75;105423;1257;104076;-75
2023/03/14 03:42:05;;;;;;;;;;;;;;;5.68;59.95;95505.21;105147;1257;102795;-75
2023/03/14 03:44:33;;;;;;;;;;;;;;;5.58;60.01;95496.82;104936;1268;98805;-75
2023/03/14 03:47:01;;;;;;;;;;;;;;;5.57;60.28;95491.63;105155;1255;98026;-75
2023/03/14 03:49:30;;;;;;;;;;;;;;;5.60;60.28;95483.00;105170;1256;97931;-75
2023/03/14 03:51:58;;;;;;;;;;;;;;;5.63;60.30;95493.21;105170;1254;104260;-75
2023/03/14 03:54:28;;;;;;;;;;;;;;;5.66;60.23;95498.86;105163;1256;101749;-75
2023/03/14 03:56:56;;;;;;;;;;;;;;;5.67;60.29;95496.10;105132;1251;99927;-76
2023/03/14 03:59:24;;;;;;;;;;;;;;;5.67;60.32;95498.45;105430;1256;98034;-75
2023/03/14 04:01:52;;;;;;;;;;;;;;;5.67;60.37;95499.74;105208;1256;97963;-75
2023/03/14 04:04:20;;;;;;;;;;;;;;;5.69;60.38;95500.16;105234;1257;104011;-76
2023/03/14 04:06:48;;;;;;;;;;;;;;;5.70;60.29;95496.92;105167;1251;101732;-75
2023/03/14 04:09:16;;;;;;;;;;;;;;;5.72;60.25;95495.59;105209;1251;99330;-75
2023/03/14 04:11:44;;;;;;;;;;;;;;;5.74;60.24;95497.89;105159;1256;98820;-75
2023/03/14 04:14:12;;;;;;;;;;;;;;;5.74;60.30;95509.04;105313;1264;99094;-76
2023/03/14 04:16:40;;;;;;;;;;;;;;;5.74;60.29;95501.21;105154;1257;103998;-76
2023/03/14 04:19:08;;;;;;;;;;;;;;;5.76;60.34;95495.43;105136;1256;101752;-75
2023/03/14 04:21:36;;;;;;;;;;;;;;;5.79;60.36;95493.74;105010;1251;107608;-74
2023/03/14 04:24:04;;;;;;;;;;;;;;;5.81;60.33;95496.05;105045;1256;98015;-74
2023/03/14 04:26:33;;;;;;;;;;;;;;;5.83;60.39;95496.10;105212;1257;97905;-76
2023/03/14 04:29:01;;;;;;;;;;;;;;;5.85;60.41;95488.70;105076;1254;104044;-75
2023/03/14 04:31:28;;;;;;;;;;;;;;;5.87;60.44;95484.48;105135;1256;101787;-74
2023/03/14 04:33:56;;;;;;;;;;;;;;;5.88;60.37;95477.40;105025;1257;98709;-76
2023/03/14 04:36:24;;;;;;;;;;;;;;;5.86;60.37;95472.67;105101;1261;98074;-75
2023/03/14 04:38:52;;;;;;;;;;;;;;;5.83;60.42;95471.60;105216;1255;97915;-75
2023/03/14 04:41:20;;;;;;;;;;;;;;;5.89;60.31;95471.10;105439;1257;104027;-74
2023/03/14 04:43:48;;;;;;;;;;;;;;;6.05;60.21;95473.83;105458;1256;102119;-77
2023/03/14 04:46:16;;;;;;;;;;;;;;;6.26;60.18;95471.50;105280;1256;100626;-75
2023/03/14 04:48:44;;;;;;;;;;;;;;;6.44;60.07;95467.84;105396;1257;97943;-75
2023/03/14 04:51:12;;;;;;;;;;;;;;;6.63;59.88;95463.55;105129;1256;97863;-75
2023/03/14 04:53:41;;;;;;;;;;;;;;;6.73;59.72;95461.12;104935;1260;104875;-75
2023/03/14 04:56:09;;;;;;;;;;;;;;;6.76;59.61;95455.23;105079;1254;101837;-75
2023/03/14 04:58:37;;;;;;;;;;;;;;;6.78;59.47;95457.45;105132;1251;98691;-75
2023/03/14 05:01:06;;;;;;;;;;;;;;;6.78;59.40;95470.02;105182;1258;97998;-75
2023/03/14 05:03:35;;;;;;;;;;;;;;;6.78;59.45;95473.24;105144;1251;98040;-75
2023/03/14 05:06:04;;;;;;;;;;;;;;;6.81;59.37;95462.64;105065;1254;104001;-75
2023/03/14 05:08:32;;;;;;;;;;;;;;;6.84;59.37;95454.41;105202;1254;101864;-75
2023/03/14 05:11:00;;;;;;;;;;;;;;;6.92;59.42;95461.31;105109;1251;98616;-74
2023/03/14 05:13:28;;;;;;;;;;;;;;;6.98;59.43;95468.64;105149;1257;99217;-76
2023/03/14 05:16:04;;;;;;;;;;;;;;;7.03;59.39;95468.04;105135;1257;97946;-73
2023/03/14 05:18:32;;;;;;;;;;;;;;;7.11;59.27;95463.67;105124;1256;103970;-74
2023/03/14 05:21:00;;;;;;;;;;;;;;;7.24;59.26;95448.72;105112;1256;101408;-74
2023/03/14 05:23:28;;;;;;;;;;;;;;;7.36;59.22;95450.89;105245;1257;100524;-75
2023/03/14 05:25:56;;;;;;;;;;;;;;;7.46;59.34;95457.23;105366;1257;98018;-75
2023/03/14 05:28:24;;;;;;;;;;;;;;;7.54;59.32;95459.42;105247;1256;99208;-76
2023/03/14 05:30:52;;;;;;;;;;;;;;;7.59;59.15;95465.91;105148;1251;104082;-73
2023/03/14 05:33:20;;;;;;;;;;;;;;;7.62;59.12;95470.19;105306;1253;102099;-74
2023/03/14 05:35:48;;;;;;;;;;;;;;;7.64;59.13;95462.45;105225;1256;100351;-75
2023/03/14 05:38:16;;;;;;;;;;;;;;;7.67;58.96;95450.41;105179;1257;97909;-75
2023/03/14 05:40:45;;;;;;;;;;;;;;;7.73;59.00;95445.36;105394;1251;97828;-73
2023/03/14 05:43:14;;;;;;;;;;;;;;;7.81;59.02;95443.90;105488;1255;103750;-75
2023/03/14 05:45:43;;;;;;;;;;;;;;;7.89;58.75;95447.33;105462;1250;101477;-75
2023/03/14 05:48:11;;;;;;;;;;;;;;;7.98;58.70;95445.44;105161;1255;100418;-76
2023/03/14 05:50:39;;;;;;;;;;;;;;;8.05;58.66;95442.66;105396;1253;97908;-75
2023/03/14 05:53:07;;;;;;;;;;;;;;;8.12;58.53;95440.52;105338;1256;97988;-74
2023/03/14 05:55:35;;;;;;;;;;;;;;;8.18;58.45;95439.77;105214;1256;104041;-74
2023/03/14 05:58:03;;;;;;;;;;;;;;;8.23;58.52;95435.44;105185;1257;101977;-74
2023/03/14 06:00:31;;;;;;;;;;;;;;;8.28;58.34;95435.73;105071;1251;100482;-74
2023/03/14 06:02:59;;;;;;;;;;;;;;;8.33;58.37;95437.12;105129;1251;98029;-74
2023/03/14 06:05:27;;;;;;;;;;;;;;;8.36;58.30;95442.05;105146;1251;99154;-74
2023/03/14 06:07:55;;;;;;;;;;;;;;;8.39;58.23;95441.30;105222;1251;104406;-73
2023/03/14 06:10:23;;;;;;;;;;;;;;;8.43;58.40;95445.46;105207;1256;101618;-75
2023/03/14 06:12:51;;;;;;;;;;;;;;;8.44;58.60;95443.98;105405;1256;100510;-75
2023/03/14 06:15:19;;;;;;;;;;;;;;;8.47;58.75;95446.91;105421;1253;98217;-75
2023/03/14 06:17:47;;;;;;;;;;;;;;;8.49;58.83;95445.29;105433;1251;98025;-74
2023/03/14 06:20:15;;;;;;;;;;;;;;;8.52;58.86;95445.27;105417;1257;104537;-76
2023/03/14 06:22:43;;;;;;;;;;;;;;;8.52;59.10;95439.91;105210;1251;101835;-75
2023/03/14 06:25:11;;;;;;;;;;;;;;;8.56;58.92;95435.61;105342;1257;100492;-74
2023/03/14 06:27:39;;;;;;;;;;;;;;;8.62;58.80;95427.95;105130;1259;98065;-75
2023/03/14 06:30:07;;;;;;;;;;;;;;;8.71;58.67;95423.17;105198;1267;99214;-76
2023/03/14 06:32:35;;;;;;;;;;;;;;;8.79;58.70;95427.17;105670;1255;103975;-75
2023/03/14 06:35:04;;;;;;;;;;;;;;;8.86;58.64;95428.71;105420;1257;101806;-76
2023/03/14 06:37:32;;;;;;;;;;;;;;;8.93;58.81;95426.07;105224;1258;100412;-75
2023/03/14 06:40:00;;;;;;;;;;;;;;;8.99;58.90;95424.10;105082;1256;99028;-75
2023/03/14 06:42:28;;;;;;;;;;;;;;;9.05;58.87;95416.80;105246;1266;99089;-75
2023/03/14 06:44:56;;;;;;;;;;;;;;;9.12;58.72;95412.10;105411;1257;103967;-75
2023/03/14 06:47:24;;;;;;;;;;;;;;;9.21;58.64;95417.33;105420;1256;101787;-76
2023/03/14 06:49:52;;;;;;;;;;;;;;;9.30;58.32;95412.80;105475;1256;100559;-75
2023/03/14 06:52:20;;;;;;;;;;;;;;;9.41;58.06;95409.91;105296;1256;97937;-74
2023/03/14 06:54:48;;;;;;;;;;;;;;;9.53;57.81;95406.76;105407;1255;97912;-75
2023/03/14 06:57:16;;;;;;;;;;;;;;;9.64;57.62;95406.77;105304;1255;104128;-75
2023/03/14 06:59:46;;;;;;;;;;;;;;;9.77;57.48;95414.06;105171;1257;101905;-75
2023/03/14 07:02:14;;;;;;;;;;;;;;;9.89;57.31;95413.91;105088;1266;100575;-76
2023/03/14 07:04:43;;;;;;;;;;;;;;;10.01;56.99;95408.42;105359;1252;97928;-76
2023/03/14 07:07:11;;;;;;;;;;;;;;;10.14;56.84;95401.20;105402;1251;97950;-75
2023/03/14 07:09:39;;;;;;;;;;;;;;;10.27;56.57;95397.82;105397;1257;104022;-75
2023/03/14 07:12:07;;;;;;;;;;;;;;;10.39;56.35;95397.76;105340;1255;101839;-76
2023/03/14 07:14:35;;;;;;;;;;;;;;;10.50;56.01;95402.84;105163;1256;100424;-75
2023/03/14 07:17:03;;;;;;;;;;;;;;;10.62;55.79;95397.85;105117;1256;98043;-75
2023/03/14 07:19:31;;;;;;;;;;;;;;;10.72;55.43;95389.77;105125;1256;97916;-76
2023/03/14 07:21:59;;;;;;;;;;;;;;;10.82;55.16;95389.30;105150;1256;104093;-75
2023/03/14 07:24:27;;;;;;;;;;;;;;;10.91;54.80;95397.28;105425;1254;101990;-75
2023/03/14 07:26:55;;;;;;;;;;;;;;;11.03;54.52;95391.36;105418;1257;100363;-75
2023/03/14 07:29:23;;;;;;;;;;;;;;;11.15;54.15;95382.45;105301;1256;97912;-76
2023/03/14 07:31:51;;;;;;;;;;;;;;;11.28;53.92;95389.89;105331;1256;99232;-75
2023/03/14 07:34:19;;;;;;;;;;;;;;;11.38;53.66;95402.13;105149;1251;104909;-75
2023/03/14 07:36:47;;;;;;;;;;;;;;;11.50;53.57;95405.95;105176;1259;102046;-75
2023/03/14 07:39:15;;;;;;;;;;;;;;;11.64;53.31;95401.56;105385;1257;98935;-75
2023/03/14 07:41:43;;;;;;;;;;;;;;;11.88;53.15;95405.00;105179;1266;98079;-76
2023/03/14 07:44:11;;;;;;;;;;;;;;;12.20;52.67;95395.19;104990;1259;98326;-75
2023/03/14 07:46:39;;;;;;;;;;;;;;;12.40;52.30;95394.11;105229;1259;104015;-76
2023/03/14 07:49:08;;;;;;;;;;;;;;;12.68;52.07;95387.68;105427;1256;100060;-75
2023/03/14 07:51:36;;;;;;;;;;;;;;;12.99;51.74;95380.96;105065;1255;100402;-75
2023/03/14 07:54:04;;;;;;;;;;;;;;;13.23;51.56;95385.84;105162;1255;98692;-77
2023/03/14 07:56:32;;;;;;;;;;;;;;;13.36;51.07;95389.81;105280;1251;98341;-75
2023/03/14 07:59:00;;;;;;;;;;;;;;;13.43;50.17;95395.68;105296;1260;103724;-75
2023/03/14 08:01:29;;;;;;;;;;;;;;;13.42;50.47;95394.87;104993;1251;219659;-75
2023/03/14 08:03:57;;;;;;;;;;;;;;;13.43;50.65;95391.39;104940;1260;100639;-74
2023/03/14 08:06:25;;;;;;;;;;;;;;;13.41;50.28;95402.63;105084;1266;99098;-74
2023/03/14 08:08:53;;;;;;;;;;;;;;;13.38;50.23;95404.21;105274;1257;97911;-74
2023/03/14 08:11:21;;;;;;;;;;;;;;;13.37;49.97;95401.07;105172;1265;103984;-75
2023/03/14 08:13:51;;;;;;;;;;;;;;;13.33;49.75;95405.64;105411;1251;101744;-77
2023/03/14 08:16:19;;;;;;;;;;;;;;;13.29;49.32;95407.96;105279;1251;100544;-75
2023/03/14 08:18:48;;;;;;;;;;;;;;;13.27;49.26;95418.73;105412;1251;97850;-74
2023/03/14 08:21:16;;;;;;;;;;;;;;;13.25;49.26;95426.33;105422;1257;97844;-74
2023/03/14 08:23:44;;;;;;;;;;;;;;;13.25;49.05;95433.91;105436;1257;103990;-75
2023/03/14 08:26:12;;;;;;;;;;;;;;;13.32;48.96;95431.81;105431;1266;101733;-75
2023/03/14 08:28:40;;;;;;;;;;;;;;;13.45;48.61;95427.59;105218;1251;100105;-76
2023/03/14 08:31:08;;;;;;;;;;;;;;;13.54;48.28;95431.63;105410;1256;97958;-75
2023/03/14 08:33:37;;;;;;;;;;;;;;;13.62;48.12;95434.96;105458;1251;98052;-76
2023/03/14 08:36:05;;;;;;;;;;;;;;;13.66;47.71;95422.84;105211;1251;104045;-75
2023/03/14 08:38:33;;;;;;;;;;;;;;;13.71;47.73;95424.50;105340;1251;100409;-75
2023/03/14 08:41:03;;;;;;;;;;;;;;;13.76;47.79;95421.65;105122;1274;99624;-74
2023/03/14 08:43:32;;;;;;;;;;;;;;;13.80;47.32;95440.83;105259;1257;99267;-74
2023/03/14 08:46:01;;;;;;;;;;;;;;;13.81;47.04;95431.23;105419;1251;99205;-75
2023/03/14 08:48:30;;;;;;;;;;;;;;;13.86;47.30;95430.60;105335;1251;103859;-74
2023/03/14 08:51:05;;;;;;;;;;;;;;;13.94;47.19;95435.81;105376;1256;102143;-75
2023/03/14 08:53:33;;;;;;;;;;;;;;;14.01;46.82;95437.73;105455;1256;100527;-75
2023/03/14 08:56:01;;;;;;;;;;;;;;;14.06;46.85;95439.11;105458;1255;97895;-76
2023/03/14 08:58:29;;;;;;;;;;;;;;;14.11;46.74;95449.84;105565;1257;97934;-77
2023/03/14 09:00:57;;;;;;;;;;;;;;;14.09;46.11;95447.19;105393;1257;104218;-74
2023/03/14 09:03:26;;;;;;;;;;;;;;;13.98;45.85;95447.30;105297;1256;102181;-75
2023/03/14 09:05:54;;;;;;;;;;;;;;;13.88;46.02;95444.05;105397;1256;100468;-75
2023/03/14 09:08:22;;;;;;;;;;;;;;;13.83;46.18;95451.02;105410;1260;98906;-76
2023/03/14 09:10:50;;;;;;;;;;;;;;;13.77;46.18;95458.64;105081;1259;97902;-75
2023/03/14 09:13:18;;;;;;;;;;;;;;;13.69;46.02;95457.15;105042;1258;103988;-78
2023/03/14 09:15:51;;;;;;;;;;;;;;;13.61;46.03;95452.20;105391;1256;101914;-76
2023/03/14 09:18:19;;;;;;;;;;;;;;;13.54;46.16;95453.73;105170;1257;100717;-75
2023/03/14 09:20:47;;;;;;;;;;;;;;;13.54;46.66;95450.82;105128;1257;97981;-76
2023/03/14 09:23:15;;;;;;;;;;;;;;;13.64;47.05;95446.98;105077;1259;98015;-76
2023/03/14 09:25:43;;;;;;;;;;;;;;;13.79;47.17;95450.75;105203;1265;102772;-76
2023/03/14 09:28:11;;;;;;;;;;;;;;;13.91;46.87;95454.00;105165;1265;101556;-74
2023/03/14 09:30:40;;;;;;;;;;;;;;;13.90;46.32;95446.67;105239;1258;100711;-77
2023/03/14 09:33:08;;;;;;;;;;;;;;;13.88;46.45;95448.66;105293;1257;98015;-75
2023/03/14 09:35:36;;;;;;;;;;;;;;;13.87;46.44;95458.54;105321;1257;99193;-76
2023/03/14 09:38:05;;;;;;;;;;;;;;;13.83;46.16;95456.11;105174;1257;103856;-78
2023/03/14 09:40:35;;;;;;;;;;;;;;;13.78;45.88;95460.68;105244;1251;100517;-76
2023/03/14 09:43:04;;;;;;;;;;;;;;;13.79;45.95;95459.54;105213;1251;98941;-76
2023/03/14 09:45:40;;;;;;;;;;;;;;;13.88;46.06;95445.45;105170;1257;97946;-75
2023/03/14 09:48:20;;;;;;;;;;;;;;;14.12;46.32;95453.51;105120;1251;99224;-75
2023/03/14 09:50:54;;;;;;;;;;;;;;;14.45;46.40;95456.78;105346;1265;104225;-75
2023/03/14 09:53:25;;;;;;;;;;;;;;;14.77;46.12;95454.52;105065;1259;101695;-75
2023/03/14 09:55:55;;;;;;;;;;;;;;;15.10;45.84;95454.60;104987;1259;99499;-74
2023/03/14 09:58:24;;;;;;;;;;;;;;;15.35;45.27;95451.66;105350;1258;99222;-76
2023/03/14 10:00:54;;;;;;;;;;;;;;;15.56;44.97;95441.89;105619;1256;98053;-75
2023/03/14 10:03:35;;;;;;;;;;;;;;;15.72;44.48;95443.98;105470;1257;104042;-78
2023/03/14 10:06:05;;;;;;;;;;;;;;;15.71;43.93;95454.32;105651;1273;101854;-75
2023/03/14 10:08:33;;;;;;;;;;;;;;;15.69;44.01;95438.74;105505;1256;100416;-76
2023/03/14 10:11:02;;;;;;;;;;;;;;;15.67;43.80;95444.27;105194;1266;98030;-76
2023/03/14 10:13:30;;;;;;;;;;;;;;;15.56;43.49;95443.89;105356;1255;99123;-75
2023/03/14 10:16:03;;;;;;;;;;;;;;;15.43;43.11;95453.87;105155;1258;104022;-76
2023/03/14 10:18:33;;;;;;;;;;;;;;;15.40;43.48;95460.81;105164;1251;101852;-75
2023/03/14 10:21:05;;;;;;;;;;;;;;;15.48;43.84;95472.02;105172;1254;100662;-75
2023/03/14 10:23:34;;;;;;;;;;;;;;;15.58;43.53;95472.16;105253;1257;98759;-75
2023/03/14 10:26:22;;;;;;;;;;;;;;;15.54;42.86;95467.63;105095;1257;97918;-76
2023/03/14 10:28:55;;;;;;;;;;;;;;;15.55;43.10;95463.59;104679;1259;103826;-78
2023/03/14 10:31:26;;;;;;;;;;;;;;;15.66;43.23;95458.90;104983;1273;102183;-75
2023/03/14 10:34:05;;;;;;;;;;;;;;;15.75;43.19;95461.58;104845;1263;100500;-76
2023/03/14 10:36:34;;;;;;;;;;;;;;;15.77;43.12;95459.05;104855;1260;98118;-75
2023/03/14 10:39:21;;;;;;;;;;;;;;;15.83;43.34;95463.37;104840;1259;97880;-76
2023/03/14 10:41:51;;;;;;;;;;;;;;;15.87;43.26;95457.34;104640;1265;104163;-75
2023/03/14 10:44:22;;;;;;;;;;;;;;;15.91;43.28;95454.35;104838;1264;99892;-76
2023/03/14 10:47:16;;;;;;;;;;;;;;;15.83;43.03;95456.73;104846;1260;100416;-75
2023/03/14 10:49:44;;;;;;;;;;;;;;;15.73;43.10;95459.47;104648;1275;98745;-76
2023/03/14 10:52:26;;;;;;;;;;;;;;;15.66;42.78;95456.62;104623;1261;98013;-75
2023/03/14 10:55:02;;;;;;;;;;;;;;;15.53;42.75;95451.42;104643;1265;104127;-76
2023/03/14 10:57:30;;;;;;;;;;;;;;;15.50;43.03;95454.65;104642;1266;102092;-75
2023/03/14 10:59:58;;;;;;;;;;;;;;;15.49;43.05;95449.22;104392;1268;100446;-75
2023/03/14 11:02:42;;;;;;;;;;;;;;;15.46;43.26;95450.41;104926;1264;99231;-75
2023/03/14 11:05:23;;;;;;;;;;;;;;;15.39;43.23;95447.98;104767;1265;99362;-76
2023/03/14 11:07:54;;;;;;;;;;;;;;;15.30;43.43;95444.23;105451;1251;104221;-76
2023/03/14 11:10:37;;;;;;;;;;;;;;;15.27;43.55;95439.91;105458;1256;101876;-75
2023/03/14 11:13:44;;;;;;;;;;;;;;;15.27;43.47;95446.49;105381;1259;100529;-79
2023/03/14 11:16:15;;;;;;;;;;;;;;;15.13;43.24;95436.14;104849;1263;99075;-75
2023/03/14 11:19:18;;;;;;;;;;;;;;;15.07;43.54;95426.48;104424;1266;98134;-75
2023/03/14 11:21:55;;;;;;;;;;;;;;;15.12;43.86;95432.52;104252;1271;104319;-76
2023/03/14 11:24:39;;;;;;;;;;;;;;;15.24;43.60;95440.59;104181;1274;100598;-76
2023/03/14 11:27:26;;;;;;;;;;;;;;;15.38;43.76;95425.44;104370;1270;100262;-77
2023/03/14 11:30:03;;;;;;;;;;;;;;;15.62;43.94;95421.75;104168;1272;99273;-75
2023/03/14 11:32:50;;;;;;;;;;;;;;;15.80;43.49;95420.64;104225;1268;98119;-76
2023/03/14 11:35:21;;;;;;;;;;;;;;;16.01;43.17;95411.11;104137;1268;103651;-75
2023/03/14 11:37:54;;;;;;;;;;;;;;;16.19;42.99;95409.70;104157;1268;101840;-76
2023/03/14 11:40:27;;;;;;;;;;;;;;;16.39;43.15;95414.80;104243;1268;100839;-76
2023/03/14 11:43:11;;;;;;;;;;;;;;;16.59;42.91;95415.41;104250;1270;99239;-76
2023/03/14 11:45:42;;;;;;;;;;;;;;;16.68;42.58;95416.74;104287;1282;97994;-76
2023/03/14 11:48:39;;;;;;;;;;;;;;;16.77;42.40;95412.73;104658;1265;103728;-76
2023/03/14 11:51:25;;;;;;;;;;;;;;;17.00;42.46;95419.52;104305;1268;102098;-76
2023/03/14 11:54:16;;;;;;;;;;;;;;;17.18;42.04;95420.77;104364;1279;100558;-75
2023/03/14 11:56:59;;;;;;;;;;;;;;;17.35;41.65;95418.39;104328;1268;98025;-76
2023/03/14 11:59:33;;;;;;;;;;;;;;;17.31;41.20;95416.23;104578;1267;98002;-75
2023/03/14 12:02:04;;;;;;;;;;;;;;;17.19;41.19;95421.25;104596;1269;103920;-76
2023/03/14 12:04:32;;;;;;;;;;;;;;;17.13;41.19;95429.38;104374;1268;102162;-75
2023/03/14 12:07:04;;;;;;;;;;;;;;;17.00;41.25;95429.90;104357;1268;99916;-77
2023/03/14 12:09:32;;;;;;;;;;;;;;;16.78;41.12;95434.29;104706;1265;99321;-75
2023/03/14 12:12:03;;;;;;;;;;;;;;;16.56;41.05;95441.11;104549;1268;98132;-76
2023/03/14 12:14:38;;;;;;;;;;;;;;;16.32;41.16;95430.98;104295;1265;103793;-76
2023/03/14 12:17:18;;;;;;;;;;;;;;;16.07;41.28;95423.97;104605;1265;101870;-76
2023/03/14 12:19:47;;;;;;;;;;;;;;;15.84;41.49;95417.92;104573;1268;100437;-76
2023/03/14 12:22:27;;;;;;;;;;;;;;;15.74;41.89;95416.48;104257;1277;97979;-76
2023/03/14 12:25:19;;;;;;;;;;;;;;;15.73;42.18;95407.30;104378;1268;97859;-75
2023/03/14 12:28:03;;;;;;;;;;;;;;;15.72;42.15;95409.83;104146;1271;104191;-75
2023/03/14 12:30:38;;;;;;;;;;;;;;;15.64;42.06;95407.64;104312;1269;102343;-76
2023/03/14 12:33:18;;;;;;;;;;;;;;;15.62;42.22;95409.66;104522;1263;100911;-77
2023/03/14 12:35:47;;;;;;;;;;;;;;;15.57;42.34;95407.67;104586;1260;97985;-77
2023/03/14 12:38:24;;;;;;;;;;;;;;;15.51;42.55;95406.73;104749;1262;97929;-76
2023/03/14 12:40:58;;;;;;;;;;;;;;;15.51;42.87;95409.30;104946;1261;104066;-76
2023/03/14 12:43:31;;;;;;;;;;;;;;;15.54;42.90;95409.23;104901;1262;102011;-77
2023/03/14 12:46:14;;;;;;;;;;;;;;;15.60;42.92;95412.70;104866;1262;100335;-77
2023/03/14 12:48:42;;;;;;;;;;;;;;;15.60;42.79;95412.09;104964;1262;98089;-77
2023/03/14 12:51:15;;;;;;;;;;;;;;;15.56;42.75;95415.08;104968;1263;98494;-76